Time;durP1;ratioP1;P1;durP2;ratioP2;P2;SDS_P1;SDS_P2;PMS_P1;PMS_P2;Temp;Humidity;BMP_temperature;BMP_pressure;BME280_temperature;BME280_humidity;BME280_pressure;Samples;Min_cycle;Max_cycle;Signal;HPM_P1;HPM_P2
2023/11/27 00:00:27;;;;;;;5.45;2.83;;;;;;;;;;5102232;27;20040;-78
2023/11/27 00:03:06;;;;;;;3.75;2.53;;;;;;;;;;5092549;27;20047;-79
2023/11/27 00:05:33;;;;;;;6.20;2.63;;;;;;;;;;5126790;27;20050;-78
2023/11/27 00:08:00;;;;;;;6.05;3.05;;;;;;;;;;5105995;28;20055;-78
2023/11/27 00:10:27;;;;;;;3.42;2.47;;;;;;;;;;5122586;27;20047;-76
2023/11/27 00:12:58;;;;;;;3.05;2.55;;;;;;;;;;5086531;27;20051;-80
2023/11/27 00:15:27;;;;;;;6.45;3.15;;;;;;;;;;5087768;27;20047;-80
2023/11/27 00:17:54;;;;;;;3.35;2.90;;;;;;;;;;5100554;27;20561;-80
2023/11/27 00:20:21;;;;;;;4.72;3.20;;;;;;;;;;5083918;27;20074;-82
2023/11/27 00:22:48;;;;;;;5.35;2.92;;;;;;;;;;5082281;27;20055;-80
2023/11/27 00:25:15;;;;;;;8.25;2.95;;;;;;;;;;5133629;27;20047;-81
2023/11/27 00:27:42;;;;;;;4.05;2.78;;;;;;;;;;5117721;27;20047;-81
2023/11/27 00:30:10;;;;;;;3.97;2.80;;;;;;;;;;5119574;27;20058;-81
2023/11/27 00:32:37;;;;;;;4.63;2.60;;;;;;;;;;5104883;27;20081;-82
2023/11/27 00:35:05;;;;;;;4.00;3.03;;;;;;;;;;5100950;27;20039;-79
2023/11/27 00:37:31;;;;;;;5.28;3.10;;;;;;;;;;5085096;27;20531;-81
2023/11/27 00:39:58;;;;;;;8.38;4.13;;;;;;;;;;5101398;27;20047;-82
2023/11/27 00:42:25;;;;;;;5.40;3.15;;;;;;;;;;5118592;27;20047;-81
2023/11/27 00:44:52;;;;;;;5.90;3.28;;;;;;;;;;5099523;27;20063;-81
2023/11/27 00:47:19;;;;;;;4.75;3.38;;;;;;;;;;5100322;27;20095;-82
2023/11/27 00:49:46;;;;;;;4.82;3.08;;;;;;;;;;5118721;27;20047;-80
2023/11/27 00:52:12;;;;;;;4.15;2.95;;;;;;;;;;5101939;27;20057;-82
2023/11/27 00:54:39;;;;;;;5.53;3.10;;;;;;;;;;5082268;28;20076;-81
2023/11/27 00:57:06;;;;;;;4.05;3.15;;;;;;;;;;5115065;27;20115;-82
2023/11/27 00:59:38;;;;;;;4.00;2.80;;;;;;;;;;5085223;27;20115;-82
2023/11/27 01:02:06;;;;;;;4.25;2.60;;;;;;;;;;5118687;27;20043;-82
2023/11/27 01:04:33;;;;;;;5.72;3.17;;;;;;;;;;5118121;27;20512;-81
2023/11/27 01:07:00;;;;;;;4.88;3.35;;;;;;;;;;5081028;28;20058;-81
2023/11/27 01:09:28;;;;;;;6.30;2.95;;;;;;;;;;5116088;27;20081;-81
2023/11/27 01:11:55;;;;;;;3.78;2.95;;;;;;;;;;5100315;27;20413;-82
2023/11/27 01:14:21;;;;;;;6.32;3.13;;;;;;;;;;5136675;27;20051;-82
2023/11/27 01:16:48;;;;;;;4.43;2.60;;;;;;;;;;5101621;27;20432;-81
2023/11/27 01:19:17;;;;;;;6.07;2.90;;;;;;;;;;5099245;28;20059;-82
2023/11/27 01:21:44;;;;;;;3.80;2.97;;;;;;;;;;5099194;28;20048;-80
2023/11/27 01:24:12;;;;;;;5.20;2.97;;;;;;;;;;5099540;27;20055;-82
2023/11/27 01:26:38;;;;;;;4.82;2.92;;;;;;;;;;5103394;27;20107;-82
2023/11/27 01:29:05;;;;;;;3.95;2.50;;;;;;;;;;5101449;27;20047;-82
2023/11/27 01:31:32;;;;;;;3.75;2.97;;;;;;;;;;5100718;27;20086;-81
2023/11/27 01:33:59;;;;;;;3.92;2.47;;;;;;;;;;5101139;27;20056;-83
2023/11/27 01:36:26;;;;;;;3.78;2.45;;;;;;;;;;5099573;28;20139;-82
2023/11/27 01:38:53;;;;;;;5.22;2.80;;;;;;;;;;5096809;28;20052;-82
2023/11/27 01:41:20;;;;;;;4.82;2.85;;;;;;;;;;5081584;28;20047;-82
2023/11/27 01:43:47;;;;;;;2.65;2.05;;;;;;;;;;5097605;28;20056;-82
2023/11/27 01:46:24;;;;;;;3.63;2.22;;;;;;;;;;5116530;28;20051;-82
2023/11/27 01:48:52;;;;;;;4.28;2.40;;;;;;;;;;5099064;28;20082;-82
2023/11/27 01:51:21;;;;;;;4.80;2.40;;;;;;;;;;5085168;28;20045;-82
2023/11/27 01:53:49;;;;;;;5.47;2.60;;;;;;;;;;5117563;28;20092;-82
2023/11/27 01:56:17;;;;;;;4.28;2.40;;;;;;;;;;5082004;28;20055;-82
2023/11/27 01:58:44;;;;;;;4.10;2.22;;;;;;;;;;5081382;28;20052;-81
2023/11/27 02:01:11;;;;;;;4.88;2.63;;;;;;;;;;5089299;28;20051;-82
2023/11/27 02:03:37;;;;;;;3.40;2.00;;;;;;;;;;5101222;28;20100;-82
2023/11/27 02:06:04;;;;;;;4.72;2.00;;;;;;;;;;5117478;28;20051;-82
2023/11/27 02:08:31;;;;;;;2.67;2.17;;;;;;;;;;5114428;28;20047;-82
2023/11/27 02:10:58;;;;;;;3.50;1.80;;;;;;;;;;5101435;28;20107;-82
2023/11/27 02:13:25;;;;;;;3.80;2.10;;;;;;;;;;5101278;28;20084;-82
2023/11/27 02:15:52;;;;;;;3.60;1.98;;;;;;;;;;5119153;28;20047;-83
2023/11/27 02:18:21;;;;;;;3.17;1.98;;;;;;;;;;5084991;28;20051;-84
2023/11/27 02:20:48;;;;;;;3.20;2.13;;;;;;;;;;5117816;28;20059;-81
2023/11/27 02:23:16;;;;;;;3.00;2.10;;;;;;;;;;5100042;28;20058;-81
2023/11/27 02:25:43;;;;;;;3.47;1.75;;;;;;;;;;5083921;28;20100;-81
2023/11/27 02:28:10;;;;;;;3.35;2.10;;;;;;;;;;5105325;28;20032;-82
2023/11/27 02:30:37;;;;;;;4.05;2.40;;;;;;;;;;5125726;28;20023;-81
2023/11/27 02:33:04;;;;;;;2.38;1.83;;;;;;;;;;5159682;27;20069;-82
2023/11/27 02:35:30;;;;;;;5.13;2.28;;;;;;;;;;5125365;28;20034;-81
2023/11/27 02:38:01;;;;;;;3.92;2.03;;;;;;;;;;5125988;28;20035;-80
2023/11/27 02:40:29;;;;;;;2.50;2.20;;;;;;;;;;5124507;28;20064;-81
2023/11/27 02:42:56;;;;;;;2.83;1.55;;;;;;;;;;5108329;28;20047;-80
2023/11/27 02:45:23;;;;;;;4.13;2.05;;;;;;;;;;5095948;27;20497;-82
2023/11/27 02:47:51;;;;;;;3.83;2.83;;;;;;;;;;5114648;27;20043;-82
2023/11/27 02:50:20;;;;;;;4.28;2.55;;;;;;;;;;5117976;27;20408;-83
2023/11/27 02:52:47;;;;;;;3.58;1.73;;;;;;;;;;5101345;28;20051;-81
2023/11/27 02:55:14;;;;;;;2.92;2.05;;;;;;;;;;5119118;27;20065;-82
2023/11/27 02:57:41;;;;;;;3.13;2.00;;;;;;;;;;5097352;27;20082;-83
2023/11/27 03:00:09;;;;;;;3.45;2.17;;;;;;;;;;5119917;27;20058;-78
2023/11/27 03:02:39;;;;;;;3.85;2.08;;;;;;;;;;5120706;27;20079;-80
2023/11/27 03:05:08;;;;;;;2.15;1.75;;;;;;;;;;5124421;27;20047;-80
2023/11/27 03:07:35;;;;;;;3.80;2.20;;;;;;;;;;5123824;27;20108;-80
2023/11/27 03:10:03;;;;;;;2.50;1.98;;;;;;;;;;5107932;27;20055;-80
2023/11/27 03:12:30;;;;;;;2.75;1.70;;;;;;;;;;5089599;27;20110;-80
2023/11/27 03:14:57;;;;;;;5.57;1.98;;;;;;;;;;5123099;27;20059;-80
2023/11/27 03:17:24;;;;;;;5.78;2.47;;;;;;;;;;5122083;27;20462;-80
2023/11/27 03:19:53;;;;;;;2.83;1.88;;;;;;;;;;5123064;27;20051;-80
2023/11/27 03:22:20;;;;;;;2.08;1.75;;;;;;;;;;5105935;27;20051;-80
2023/11/27 03:24:47;;;;;;;3.42;2.15;;;;;;;;;;5101200;28;20047;-80
2023/11/27 03:27:14;;;;;;;2.90;2.08;;;;;;;;;;5114891;27;20054;-80
2023/11/27 03:29:41;;;;;;;5.03;1.98;;;;;;;;;;5080717;28;20062;-80
2023/11/27 03:32:08;;;;;;;3.08;1.80;;;;;;;;;;5113949;27;20589;-80
2023/11/27 03:34:35;;;;;;;2.10;1.90;;;;;;;;;;5100745;27;20145;-80
2023/11/27 03:37:02;;;;;;;3.80;1.80;;;;;;;;;;5118312;27;20108;-81
2023/11/27 03:39:28;;;;;;;3.33;1.85;;;;;;;;;;5100861;27;20534;-80
2023/11/27 03:41:55;;;;;;;2.65;2.28;;;;;;;;;;5101524;27;20492;-81
2023/11/27 03:44:22;;;;;;;2.47;1.95;;;;;;;;;;5115457;27;20626;-81
2023/11/27 03:46:49;;;;;;;2.70;2.08;;;;;;;;;;5096915;27;20086;-81
2023/11/27 03:49:16;;;;;;;3.95;2.20;;;;;;;;;;5100819;27;20075;-81
2023/11/27 03:51:44;;;;;;;4.65;1.90;;;;;;;;;;5094386;28;20043;-81
2023/11/27 03:54:14;;;;;;;3.40;2.05;;;;;;;;;;5094076;27;20112;-81
2023/11/27 03:56:41;;;;;;;2.53;1.98;;;;;;;;;;5096480;27;20515;-80
2023/11/27 03:59:08;;;;;;;3.97;2.03;;;;;;;;;;5096872;28;20077;-80
2023/11/27 04:01:34;;;;;;;3.30;2.10;;;;;;;;;;5083574;27;20047;-80
2023/11/27 04:04:01;;;;;;;2.45;1.90;;;;;;;;;;5112619;27;20091;-80
2023/11/27 04:06:31;;;;;;;3.20;2.00;;;;;;;;;;5117329;27;20047;-81
2023/11/27 04:08:59;;;;;;;3.85;1.63;;;;;;;;;;5117135;27;20059;-80
2023/11/27 04:11:27;;;;;;;2.85;1.98;;;;;;;;;;5100626;27;20047;-80
2023/11/27 04:13:54;;;;;;;3.63;2.22;;;;;;;;;;5103577;27;20069;-82
2023/11/27 04:16:22;;;;;;;3.35;1.80;;;;;;;;;;5136130;27;20423;-81
2023/11/27 04:18:49;;;;;;;2.55;1.92;;;;;;;;;;5107066;28;20052;-82
2023/11/27 04:21:17;;;;;;;4.53;2.25;;;;;;;;;;5117901;27;20058;-82
2023/11/27 04:23:47;;;;;;;2.78;2.00;;;;;;;;;;5099263;27;20046;-82
2023/11/27 04:26:15;;;;;;;4.82;2.22;;;;;;;;;;5116464;27;20458;-82
2023/11/27 04:28:42;;;;;;;3.03;1.73;;;;;;;;;;5108259;27;20511;-81
2023/11/27 04:31:09;;;;;;;3.50;1.95;;;;;;;;;;5095910;28;20052;-81
2023/11/27 04:33:36;;;;;;;2.58;1.65;;;;;;;;;;5124526;27;20083;-81
2023/11/27 04:36:04;;;;;;;3.88;2.38;;;;;;;;;;5111054;28;20111;-80
2023/11/27 04:38:31;;;;;;;6.25;2.13;;;;;;;;;;5112259;27;20055;-82
2023/11/27 04:40:57;;;;;;;6.25;1.85;;;;;;;;;;5093811;28;20081;-80
2023/11/27 04:43:25;;;;;;;3.95;1.80;;;;;;;;;;5131180;27;20051;-80
2023/11/27 04:45:52;;;;;;;3.00;1.90;;;;;;;;;;5095778;27;20102;-81
2023/11/27 04:48:21;;;;;;;3.28;2.17;;;;;;;;;;5128446;27;20054;-83
2023/11/27 04:50:49;;;;;;;4.38;1.77;;;;;;;;;;5113809;27;20055;-80
2023/11/27 04:53:16;;;;;;;2.55;1.67;;;;;;;;;;5123691;27;20039;-81
2023/11/27 04:55:46;;;;;;;3.78;1.90;;;;;;;;;;5123477;27;20073;-81
2023/11/27 04:58:13;;;;;;;3.47;2.33;;;;;;;;;;5107182;27;20043;-81
2023/11/27 05:00:40;;;;;;;3.88;1.88;;;;;;;;;;5105251;27;20472;-80
2023/11/27 05:03:07;;;;;;;2.47;1.80;;;;;;;;;;5097182;28;20051;-81
2023/11/27 05:05:34;;;;;;;3.45;2.08;;;;;;;;;;5103593;27;20097;-81
2023/11/27 05:08:01;;;;;;;2.15;1.88;;;;;;;;;;5082496;28;20134;-82
2023/11/27 05:10:28;;;;;;;6.40;2.53;;;;;;;;;;5101602;27;20069;-81
2023/11/27 05:12:55;;;;;;;2.58;2.35;;;;;;;;;;5114472;27;20047;-81
2023/11/27 05:15:23;;;;;;;3.35;2.20;;;;;;;;;;5111668;27;20046;-80
2023/11/27 05:17:51;;;;;;;3.80;2.78;;;;;;;;;;5101257;28;20051;-81
2023/11/27 05:20:18;;;;;;;2.38;1.73;;;;;;;;;;5114623;27;20082;-81
2023/11/27 05:22:45;;;;;;;2.97;1.75;;;;;;;;;;5095460;28;20047;-80
2023/11/27 05:25:12;;;;;;;1.77;1.45;;;;;;;;;;5099713;28;20115;-80
2023/11/27 05:27:39;;;;;;;1.85;1.70;;;;;;;;;;5088017;27;20080;-80
2023/11/27 05:30:07;;;;;;;3.55;1.88;;;;;;;;;;5086386;28;20051;-81
2023/11/27 05:32:34;;;;;;;2.78;1.88;;;;;;;;;;5115087;28;20054;-81
2023/11/27 05:35:01;;;;;;;6.75;1.92;;;;;;;;;;5098942;28;20051;-80
2023/11/27 05:37:28;;;;;;;4.38;2.53;;;;;;;;;;5133439;27;20051;-80
2023/11/27 05:39:55;;;;;;;5.75;2.72;;;;;;;;;;5092922;28;20522;-83
2023/11/27 05:42:26;;;;;;;3.05;1.98;;;;;;;;;;5097379;28;20047;-82
2023/11/27 05:44:59;;;;;;;2.13;1.65;;;;;;;;;;5094295;28;20046;-81
2023/11/27 05:47:26;;;;;;;1.77;1.48;;;;;;;;;;5101281;28;20067;-81
2023/11/27 05:49:53;;;;;;;2.42;1.58;;;;;;;;;;5094831;28;20398;-81
2023/11/27 05:52:20;;;;;;;3.72;1.92;;;;;;;;;;5110371;28;20489;-81
2023/11/27 05:54:46;;;;;;;2.83;1.77;;;;;;;;;;5098391;28;20134;-80
2023/11/27 05:57:13;;;;;;;4.38;2.40;;;;;;;;;;5101002;28;20032;-80
2023/11/27 05:59:40;;;;;;;2.63;2.08;;;;;;;;;;5121732;28;20048;-81
2023/11/27 06:02:07;;;;;;;1.92;1.52;;;;;;;;;;5104829;28;20043;-82
2023/11/27 06:04:33;;;;;;;3.88;1.83;;;;;;;;;;5114087;28;20063;-81
2023/11/27 06:07:00;;;;;;;3.17;1.70;;;;;;;;;;5134080;28;20047;-80
2023/11/27 06:09:27;;;;;;;3.20;1.88;;;;;;;;;;5132593;28;20035;-77
2023/11/27 06:11:54;;;;;;;7.03;1.80;;;;;;;;;;5119843;28;20084;-79
2023/11/27 06:14:21;;;;;;;3.45;1.92;;;;;;;;;;5130703;28;20302;-76
2023/11/27 06:16:47;;;;;;;2.53;1.65;;;;;;;;;;5094260;28;20051;-78
2023/11/27 06:19:14;;;;;;;6.18;1.60;;;;;;;;;;5107101;28;20051;-84
2023/11/27 06:21:41;;;;;;;2.83;1.65;;;;;;;;;;5109433;27;20068;-80
2023/11/27 06:24:08;;;;;;;3.25;1.77;;;;;;;;;;5123253;27;20051;-80
2023/11/27 06:26:35;;;;;;;3.65;1.90;;;;;;;;;;5120679;27;20059;-79
2023/11/27 06:29:02;;;;;;;2.08;1.88;;;;;;;;;;5099598;28;20044;-79
2023/11/27 06:31:29;;;;;;;2.20;1.80;;;;;;;;;;5119350;27;20078;-79
2023/11/27 06:33:56;;;;;;;2.63;2.17;;;;;;;;;;5116206;27;20630;-79
2023/11/27 06:36:23;;;;;;;3.05;1.95;;;;;;;;;;5118637;27;20571;-79
2023/11/27 06:38:49;;;;;;;5.82;2.47;;;;;;;;;;5098286;28;20055;-80
2023/11/27 06:41:16;;;;;;;2.42;1.95;;;;;;;;;;5098133;27;20059;-80
2023/11/27 06:43:43;;;;;;;2.75;2.00;;;;;;;;;;5119218;27;20078;-79
2023/11/27 06:46:11;;;;;;;3.03;2.00;;;;;;;;;;5099649;27;20085;-79
2023/11/27 06:48:39;;;;;;;3.22;1.83;;;;;;;;;;5118784;27;20051;-79
2023/11/27 06:51:06;;;;;;;2.88;2.20;;;;;;;;;;5111614;27;20063;-78
2023/11/27 06:53:32;;;;;;;4.38;2.70;;;;;;;;;;5133892;27;20039;-80
2023/11/27 06:55:59;;;;;;;5.15;2.72;;;;;;;;;;5117275;27;20055;-79
2023/11/27 06:58:26;;;;;;;2.85;2.33;;;;;;;;;;5115687;27;20699;-78
2023/11/27 07:00:53;;;;;;;3.50;2.40;;;;;;;;;;5092974;27;20047;-78
2023/11/27 07:03:19;;;;;;;5.13;2.65;;;;;;;;;;5115264;27;20402;-78
2023/11/27 07:05:46;;;;;;;5.65;2.90;;;;;;;;;;5098701;28;20142;-78
2023/11/27 07:08:13;;;;;;;4.93;2.55;;;;;;;;;;5119227;27;20104;-78
2023/11/27 07:10:41;;;;;;;4.72;2.72;;;;;;;;;;5115263;27;20456;-79
2023/11/27 07:13:08;;;;;;;5.68;2.85;;;;;;;;;;5120767;27;20051;-82
2023/11/27 07:15:35;;;;;;;4.85;2.78;;;;;;;;;;5098389;27;20059;-78
2023/11/27 07:18:02;;;;;;;3.55;2.70;;;;;;;;;;5096616;28;20067;-82
2023/11/27 07:20:45;;;;;;;7.30;3.37;;;;;;;;;;5102417;27;20509;-78
2023/11/27 07:23:12;;;;;;;6.40;2.95;;;;;;;;;;5099114;27;20131;-82
2023/11/27 07:25:39;;;;;;;5.28;2.97;;;;;;;;;;5098328;27;20043;-81
2023/11/27 07:28:06;;;;;;;7.82;3.05;;;;;;;;;;5093820;28;20126;-81
2023/11/27 07:30:33;;;;;;;4.97;2.72;;;;;;;;;;5114447;27;20047;-79
2023/11/27 07:33:02;;;;;;;3.17;2.28;;;;;;;;;;5099597;27;20082;-81
2023/11/27 07:35:29;;;;;;;5.72;3.38;;;;;;;;;;5099163;27;20078;-80
2023/11/27 07:37:56;;;;;;;4.07;2.65;;;;;;;;;;5100244;27;20054;-81
2023/11/27 07:40:23;;;;;;;3.92;2.75;;;;;;;;;;5099437;27;20082;-81
2023/11/27 07:42:51;;;;;;;4.40;2.67;;;;;;;;;;5086581;28;20513;-79
2023/11/27 07:45:17;;;;;;;7.38;2.72;;;;;;;;;;5104766;27;20084;-79
2023/11/27 07:47:44;;;;;;;5.88;3.05;;;;;;;;;;5107130;27;20096;-84
2023/11/27 07:50:11;;;;;;;4.85;2.72;;;;;;;;;;5104503;27;20405;-82
2023/11/27 07:52:38;;;;;;;4.15;2.90;;;;;;;;;;5117131;27;20051;-79
2023/11/27 07:55:06;;;;;;;4.60;3.25;;;;;;;;;;5105019;27;20115;-81
2023/11/27 07:57:33;;;;;;;5.13;2.47;;;;;;;;;;5142568;27;20066;-81
2023/11/27 08:00:02;;;;;;;4.05;2.92;;;;;;;;;;5119262;27;20055;-80
2023/11/27 08:02:29;;;;;;;6.50;3.28;;;;;;;;;;5102951;27;20047;-80
2023/11/27 08:04:56;;;;;;;6.10;3.45;;;;;;;;;;5094310;27;20050;-81
2023/11/27 08:07:23;;;;;;;4.18;3.20;;;;;;;;;;5093933;27;20478;-80
2023/11/27 08:09:50;;;;;;;4.75;3.25;;;;;;;;;;5085978;27;20043;-80
2023/11/27 08:12:16;;;;;;;6.10;3.10;;;;;;;;;;5080551;27;20071;-80
2023/11/27 08:14:43;;;;;;;3.92;2.78;;;;;;;;;;5105295;27;20464;-84
2023/11/27 08:17:10;;;;;;;5.05;2.90;;;;;;;;;;5088470;27;20051;-79
2023/11/27 08:19:37;;;;;;;5.38;3.50;;;;;;;;;;5109669;27;20079;-78
2023/11/27 08:22:04;;;;;;;6.40;4.03;;;;;;;;;;5095998;27;20058;-80
2023/11/27 08:24:35;;;;;;;6.45;3.35;;;;;;;;;;5108340;27;20056;-79
2023/11/27 08:27:02;;;;;;;5.93;2.90;;;;;;;;;;5109893;27;20055;-81
2023/11/27 08:29:30;;;;;;;5.22;2.70;;;;;;;;;;5078629;27;20055;-80
2023/11/27 08:31:59;;;;;;;4.43;2.85;;;;;;;;;;5110233;27;20065;-80
2023/11/27 08:34:28;;;;;;;6.00;3.15;;;;;;;;;;5080455;27;20090;-82
2023/11/27 08:36:59;;;;;;;6.38;3.25;;;;;;;;;;5093473;28;20069;-81
2023/11/27 08:39:26;;;;;;;5.32;3.33;;;;;;;;;;5075938;27;20047;-80
2023/11/27 08:41:53;;;;;;;5.13;2.80;;;;;;;;;;5086817;28;20059;-80
2023/11/27 08:44:21;;;;;;;5.55;3.47;;;;;;;;;;5088576;27;20493;-80
2023/11/27 08:46:48;;;;;;;7.55;3.25;;;;;;;;;;5099628;27;20519;-81
2023/11/27 08:49:15;;;;;;;6.03;3.10;;;;;;;;;;5100391;27;20043;-81
2023/11/27 08:51:45;;;;;;;5.93;3.45;;;;;;;;;;5094797;27;20055;-80
2023/11/27 08:54:12;;;;;;;5.78;3.08;;;;;;;;;;5098215;27;20109;-80
2023/11/27 08:56:43;;;;;;;5.13;3.13;;;;;;;;;;5108896;27;20687;-82
2023/11/27 08:59:10;;;;;;;4.00;2.70;;;;;;;;;;5077717;27;20100;-81
2023/11/27 09:01:37;;;;;;;3.88;2.83;;;;;;;;;;5088013;27;20908;-80
2023/11/27 09:04:04;;;;;;;5.55;3.45;;;;;;;;;;5107182;27;20067;-80
2023/11/27 09:06:32;;;;;;;4.55;3.20;;;;;;;;;;5106226;27;20051;-80
2023/11/27 09:08:59;;;;;;;6.25;3.47;;;;;;;;;;5080939;28;20078;-81
2023/11/27 09:11:26;;;;;;;6.40;2.75;;;;;;;;;;5088146;27;20466;-81
2023/11/27 09:13:58;;;;;;;6.18;3.00;;;;;;;;;;5082025;28;20056;-80
2023/11/27 09:16:24;;;;;;;9.05;2.65;;;;;;;;;;5104410;27;20069;-78
2023/11/27 09:18:52;;;;;;;6.43;3.50;;;;;;;;;;5102026;28;20055;-84
2023/11/27 09:21:18;;;;;;;7.18;3.17;;;;;;;;;;5100799;27;20047;-81
2023/11/27 09:23:45;;;;;;;8.30;3.08;;;;;;;;;;5110219;28;20099;-81
2023/11/27 09:26:13;;;;;;;6.68;3.33;;;;;;;;;;5098698;28;20059;-82
2023/11/27 09:28:41;;;;;;;6.03;3.15;;;;;;;;;;5075436;27;20115;-80
2023/11/27 09:31:08;;;;;;;5.43;3.25;;;;;;;;;;5106779;28;20051;-82
2023/11/27 09:33:35;;;;;;;5.55;2.80;;;;;;;;;;5097525;28;20141;-81
2023/11/27 09:36:04;;;;;;;4.13;2.92;;;;;;;;;;5117231;27;20116;-82
2023/11/27 09:38:32;;;;;;;4.53;2.40;;;;;;;;;;5102286;27;20051;-84
2023/11/27 09:40:59;;;;;;;4.25;2.70;;;;;;;;;;5119752;28;20095;-84
2023/11/27 09:43:27;;;;;;;3.35;2.10;;;;;;;;;;5106193;28;20039;-83
2023/11/27 09:45:58;;;;;;;3.33;2.45;;;;;;;;;;5144038;28;20050;-79
2023/11/27 09:48:25;;;;;;;5.05;3.10;;;;;;;;;;5134135;28;20122;-81
2023/11/27 09:50:56;;;;;;;6.18;2.72;;;;;;;;;;5129080;28;20058;-80
2023/11/27 09:53:25;;;;;;;4.35;2.67;;;;;;;;;;5104055;28;20058;-80
2023/11/27 09:55:53;;;;;;;3.67;2.90;;;;;;;;;;5108325;27;20081;-78
2023/11/27 09:58:22;;;;;;;5.07;3.28;;;;;;;;;;5100274;27;20047;-80
2023/11/27 10:00:49;;;;;;;3.38;2.70;;;;;;;;;;5107777;27;20040;-80
2023/11/27 10:03:15;;;;;;;4.88;3.15;;;;;;;;;;5096796;27;20454;-81
2023/11/27 10:05:43;;;;;;;5.15;2.58;;;;;;;;;;5089205;27;20051;-80
2023/11/27 10:08:11;;;;;;;6.88;2.70;;;;;;;;;;5079747;27;20066;-80
2023/11/27 10:10:38;;;;;;;6.10;2.72;;;;;;;;;;5091834;27;20412;-80
2023/11/27 10:13:06;;;;;;;4.30;2.67;;;;;;;;;;5092511;27;20473;-80
2023/11/27 10:15:48;;;;;;;3.38;2.60;;;;;;;;;;5108987;27;20047;-80
2023/11/27 10:18:19;;;;;;;6.53;2.63;;;;;;;;;;5097492;27;20054;-80
2023/11/27 10:20:49;;;;;;;2.95;2.20;;;;;;;;;;5099263;27;20485;-80
2023/11/27 10:23:16;;;;;;;3.55;2.35;;;;;;;;;;5081966;27;20393;-80
2023/11/27 10:25:45;;;;;;;4.38;2.78;;;;;;;;;;5108932;27;20073;-80
2023/11/27 10:28:12;;;;;;;3.60;2.28;;;;;;;;;;5102057;27;20076;-82
2023/11/27 10:30:45;;;;;;;3.60;2.63;;;;;;;;;;5089540;27;20051;-80
2023/11/27 10:33:12;;;;;;;7.70;3.05;;;;;;;;;;5095631;27;20080;-83
2023/11/27 10:35:41;;;;;;;4.25;2.40;;;;;;;;;;5087957;28;20051;-80
2023/11/27 10:38:16;;;;;;;2.72;2.47;;;;;;;;;;5104601;27;20052;-81
2023/11/27 10:40:43;;;;;;;5.15;2.63;;;;;;;;;;5109218;27;20043;-83
2023/11/27 10:43:10;;;;;;;4.82;2.80;;;;;;;;;;5092309;27;20397;-80
2023/11/27 10:45:38;;;;;;;5.43;3.25;;;;;;;;;;5097963;27;20054;-81
2023/11/27 10:48:06;;;;;;;8.93;3.38;;;;;;;;;;5115741;27;20121;-81
2023/11/27 10:50:36;;;;;;;8.13;2.55;;;;;;;;;;5105562;27;20138;-81
2023/11/27 10:53:04;;;;;;;9.73;2.78;;;;;;;;;;5085039;27;20520;-79
2023/11/27 10:55:31;;;;;;;8.25;2.40;;;;;;;;;;5095261;27;20123;-82
2023/11/27 10:57:58;;;;;;;7.38;2.80;;;;;;;;;;5085306;27;20119;-82
2023/11/27 11:00:39;;;;;;;6.88;3.20;;;;;;;;;;5101838;27;20051;-83
2023/11/27 11:03:14;;;;;;;7.93;2.67;;;;;;;;;;5091813;27;20051;-82
2023/11/27 11:05:53;;;;;;;2.55;1.88;;;;;;;;;;5109825;27;20074;-80
2023/11/27 11:08:26;;;;;;;2.40;1.60;;;;;;;;;;5103605;27;20050;-86
2023/11/27 11:10:55;;;;;;;4.28;1.95;;;;;;;;;;5097188;27;20047;-81
2023/11/27 11:13:24;;;;;;;2.38;1.20;;;;;;;;;;5095707;27;20108;-83
2023/11/27 11:16:13;;;;;;;2.47;1.40;;;;;;;;;;5097343;27;20047;-80
2023/11/27 11:18:57;;;;;;;1.83;1.20;;;;;;;;;;5085041;27;20043;-78
2023/11/27 11:21:30;;;;;;;3.05;1.02;;;;;;;;;;5084775;27;20045;-80
2023/11/27 11:24:21;;;;;;;2.15;1.23;;;;;;;;;;5108648;27;20059;-79
2023/11/27 11:27:17;;;;;;;1.48;1.38;;;;;;;;;;5113912;27;20461;-78
2023/11/27 11:29:45;;;;;;;7.70;3.28;;;;;;;;;;5104647;27;20050;-79
2023/11/27 11:32:18;;;;;;;5.63;2.65;;;;;;;;;;5080349;27;20071;-81
2023/11/27 11:34:53;;;;;;;2.92;1.63;;;;;;;;;;5082951;27;20070;-80
2023/11/27 11:37:22;;;;;;;2.28;1.40;;;;;;;;;;5092509;27;20090;-79
2023/11/27 11:39:52;;;;;;;2.35;1.45;;;;;;;;;;5085422;28;20071;-79
2023/11/27 11:42:29;;;;;;;1.60;1.30;;;;;;;;;;5111643;27;20105;-80
2023/11/27 11:45:19;;;;;;;2.00;1.50;;;;;;;;;;5094260;27;20050;-80
2023/11/27 11:47:57;;;;;;;3.17;1.50;;;;;;;;;;5090834;27;20059;-79
2023/11/27 11:50:31;;;;;;;3.28;1.92;;;;;;;;;;5106986;27;20056;-81
2023/11/27 11:52:58;;;;;;;2.17;1.67;;;;;;;;;;5111975;27;20463;-80
2023/11/27 11:55:33;;;;;;;1.90;1.58;;;;;;;;;;5105211;27;20052;-79
2023/11/27 11:58:07;;;;;;;2.78;1.70;;;;;;;;;;5107496;27;20119;-82
2023/11/27 12:00:42;;;;;;;2.03;1.20;;;;;;;;;;5081611;27;20142;-82
2023/11/27 12:03:17;;;;;;;5.53;1.58;;;;;;;;;;5092087;27;20071;-83
2023/11/27 12:05:52;;;;;;;2.92;1.60;;;;;;;;;;5102392;27;20075;-81
2023/11/27 12:08:24;;;;;;;2.13;1.50;;;;;;;;;;5100522;27;20062;-81
2023/11/27 12:10:52;;;;;;;3.20;1.70;;;;;;;;;;5103335;27;20047;-80
2023/11/27 12:13:23;;;;;;;4.43;2.00;;;;;;;;;;5097949;27;20043;-81
2023/11/27 12:15:52;;;;;;;3.08;1.75;;;;;;;;;;5113525;27;20050;-81
2023/11/27 12:18:21;;;;;;;2.83;1.25;;;;;;;;;;5096371;27;20065;-81
2023/11/27 12:20:53;;;;;;;2.90;2.03;;;;;;;;;;5092670;27;20051;-81
2023/11/27 12:23:26;;;;;;;1.95;1.48;;;;;;;;;;5081875;27;20558;-79
2023/11/27 12:25:54;;;;;;;2.42;1.30;;;;;;;;;;5110493;27;20051;-81
2023/11/27 12:28:21;;;;;;;2.08;1.10;;;;;;;;;;5092167;27;20060;-81
2023/11/27 12:30:48;;;;;;;3.55;1.38;;;;;;;;;;5082081;27;20048;-81
2023/11/27 12:33:17;;;;;;;1.25;1.05;;;;;;;;;;5075035;27;20103;-80
2023/11/27 12:35:49;;;;;;;1.00;0.90;;;;;;;;;;5108858;27;20055;-80
2023/11/27 12:38:16;;;;;;;1.58;1.38;;;;;;;;;;5099589;27;20051;-81
2023/11/27 12:40:47;;;;;;;1.05;0.98;;;;;;;;;;5079937;28;20048;-80
2023/11/27 12:43:18;;;;;;;3.10;1.15;;;;;;;;;;5110028;27;20048;-79
2023/11/27 12:45:52;;;;;;;2.20;1.10;;;;;;;;;;5078540;27;20058;-81
2023/11/27 12:48:21;;;;;;;3.38;1.52;;;;;;;;;;5084037;27;20054;-81
2023/11/27 12:50:52;;;;;;;1.42;1.10;;;;;;;;;;5110143;27;20051;-81
2023/11/27 12:53:21;;;;;;;3.15;1.00;;;;;;;;;;5073591;27;20074;-79
2023/11/27 12:55:49;;;;;;;1.17;0.80;;;;;;;;;;5107317;27;20046;-81
2023/11/27 12:58:23;;;;;;;1.17;0.80;;;;;;;;;;5106405;27;20058;-81
2023/11/27 13:00:52;;;;;;;1.67;0.95;;;;;;;;;;5095462;27;20055;-81
2023/11/27 13:03:19;;;;;;;1.00;0.90;;;;;;;;;;5100579;27;20612;-80
2023/11/27 13:05:52;;;;;;;1.23;1.00;;;;;;;;;;5090304;27;20130;-80
2023/11/27 13:08:23;;;;;;;2.85;1.05;;;;;;;;;;5106915;27;20070;-82
2023/11/27 13:10:54;;;;;;;3.97;0.90;;;;;;;;;;5117857;28;20023;-81
2023/11/27 13:13:22;;;;;;;1.00;0.88;;;;;;;;;;5118237;27;20065;-81
2023/11/27 13:15:52;;;;;;;2.55;0.90;;;;;;;;;;5094376;27;20052;-81
2023/11/27 13:18:19;;;;;;;1.20;0.77;;;;;;;;;;5109059;27;20051;-80
2023/11/27 13:20:53;;;;;;;1.83;0.90;;;;;;;;;;5109238;28;20043;-80
2023/11/27 13:23:25;;;;;;;1.65;1.02;;;;;;;;;;5088998;27;20079;-81
2023/11/27 13:25:54;;;;;;;1.52;0.75;;;;;;;;;;5089410;27;20500;-81
2023/11/27 13:28:22;;;;;;;2.85;1.08;;;;;;;;;;5080582;27;20062;-81
2023/11/27 13:30:51;;;;;;;1.08;0.88;;;;;;;;;;5102409;28;20052;-80
2023/11/27 13:33:18;;;;;;;0.75;0.60;;;;;;;;;;5096919;28;20051;-81
2023/11/27 13:35:45;;;;;;;0.60;0.60;;;;;;;;;;5113644;27;20047;-81
2023/11/27 13:38:17;;;;;;;2.30;1.27;;;;;;;;;;5079240;28;20092;-81
2023/11/27 13:40:54;;;;;;;1.85;0.77;;;;;;;;;;5075102;27;20134;-81
2023/11/27 13:43:25;;;;;;;3.35;0.90;;;;;;;;;;5098795;28;20504;-81
2023/11/27 13:45:52;;;;;;;2.03;0.80;;;;;;;;;;5076138;28;20047;-81
2023/11/27 13:48:21;;;;;;;3.92;1.05;;;;;;;;;;5109441;28;20652;-80
2023/11/27 13:51:11;;;;;;;1.67;1.10;;;;;;;;;;5075850;28;20047;-81
2023/11/27 13:53:36;;;;;;;2.90;1.50;;;;;;;;;;5096762;28;20142;-81
2023/11/27 13:56:06;;;;;;;3.33;0.77;;;;;;;;;;5103344;28;20134;-81
2023/11/27 13:58:33;;;;;;;2.28;1.10;;;;;;;;;;5106666;28;20062;-80
2023/11/27 14:01:03;;;;;;;1.42;1.00;;;;;;;;;;5099168;28;20654;-80
2023/11/27 14:03:33;;;;;;;2.83;1.38;;;;;;;;;;5082587;28;20487;-81
2023/11/27 14:06:15;;;;;;;2.92;1.40;;;;;;;;;;5089943;28;20079;-82
2023/11/27 14:08:54;;;;;;;2.75;1.60;;;;;;;;;;5101193;28;20397;-81
2023/11/27 14:11:28;;;;;;;3.05;1.30;;;;;;;;;;5097727;28;20140;-80
2023/11/27 14:14:09;;;;;;;3.63;1.45;;;;;;;;;;5096764;28;20047;-82
2023/11/27 14:16:43;;;;;;;2.58;1.42;;;;;;;;;;5082451;28;20059;-81
2023/11/27 14:27:23;;;;;;;2.58;1.52;;;;;;;;;;5110142;28;20044;-80
2023/11/27 14:29:51;;;;;;;3.55;1.60;;;;;;;;;;5081976;28;20052;-83
2023/11/27 14:32:19;;;;;;;2.88;1.17;;;;;;;;;;5090051;28;20055;-82
2023/11/27 14:34:51;;;;;;;5.38;1.48;;;;;;;;;;5087172;28;20048;-81
2023/11/27 14:37:20;;;;;;;3.30;1.52;;;;;;;;;;5088991;28;20079;-81
2023/11/27 14:39:49;;;;;;;3.30;2.03;;;;;;;;;;5107617;28;20138;-82
2023/11/27 14:42:18;;;;;;;1.88;1.50;;;;;;;;;;5099871;27;20081;-82
2023/11/27 14:44:48;;;;;;;3.95;1.98;;;;;;;;;;5096935;27;20055;-81
2023/11/27 14:47:17;;;;;;;3.17;1.73;;;;;;;;;;5084713;27;20055;-82
2023/11/27 14:49:52;;;;;;;6.00;3.35;;;;;;;;;;5104033;27;20135;-82
2023/11/27 14:52:23;;;;;;;9.63;3.90;;;;;;;;;;5099810;27;20059;-82
2023/11/27 14:54:51;;;;;;;3.70;2.17;;;;;;;;;;5108802;27;20054;-82
2023/11/27 14:57:19;;;;;;;6.40;3.45;;;;;;;;;;5112730;27;20061;-83
2023/11/27 14:59:50;;;;;;;5.30;3.13;;;;;;;;;;5122922;27;20055;-83